Terminal Aerodrome Forecast
Issued by NWS

Home | Current Version | Previous Version | Text Only | Print | Product List | Glossary On
Versions: 1 2 3 4 5 6 7 8 9 10 11 12 13 14 15 16 17 18 19 20 21 22 23 24 25
000
FTUS43 KGRB 302300
TAFAUW
TAF
KAUW 302335Z 3100/3124 34005KT P6SM BKN015 BKN025
      TEMPO 3101/3104 SCT015 BKN030
     FM310500 VRB02KT 4SM BR SCT008 SCT025
      TEMPO 3108/3112 1SM BR BKN008 OVC025
     FM311300 13005KT 5SM BR BKN012
     FM311600 15007KT P6SM SCT020=

USA.gov is the U.S. government's official web portal to all federal, state and local government web resources and services.